sensor_id;sensor_type;location;lat;lon;timestamp;pressure;altitude;pressure_sealevel;temperature
12061;BMP180;6091;51.432;6.880;2023-03-04T00:00:30;101749.00;;;22.20
12061;BMP180;6091;51.432;6.880;2023-03-04T00:02:58;101751.00;;;22.20
12061;BMP180;6091;51.432;6.880;2023-03-04T00:05:25;101749.00;;;22.20
12061;BMP180;6091;51.432;6.880;2023-03-04T00:07:52;101750.00;;;22.20
12061;BMP180;6091;51.432;6.880;2023-03-04T00:10:19;101745.00;;;22.20
12061;BMP180;6091;51.432;6.880;2023-03-04T00:12:46;101751.00;;;22.10
12061;BMP180;6091;51.432;6.880;2023-03-04T00:15:13;101751.00;;;22.10
12061;BMP180;6091;51.432;6.880;2023-03-04T00:17:40;101753.00;;;22.10
12061;BMP180;6091;51.432;6.880;2023-03-04T00:20:08;101748.00;;;22.10
12061;BMP180;6091;51.432;6.880;2023-03-04T00:22:35;101753.00;;;22.10
12061;BMP180;6091;51.432;6.880;2023-03-04T00:25:02;101752.00;;;22.10
12061;BMP180;6091;51.432;6.880;2023-03-04T00:27:34;101747.00;;;22.10
12061;BMP180;6091;51.432;6.880;2023-03-04T00:30:01;101743.00;;;22.10
12061;BMP180;6091;51.432;6.880;2023-03-04T00:32:28;101750.00;;;22.10
12061;BMP180;6091;51.432;6.880;2023-03-04T00:34:55;101750.00;;;22.10
12061;BMP180;6091;51.432;6.880;2023-03-04T00:37:22;101735.00;;;22.00
12061;BMP180;6091;51.432;6.880;2023-03-04T00:39:49;101738.00;;;22.00
12061;BMP180;6091;51.432;6.880;2023-03-04T00:42:16;101741.00;;;22.00
12061;BMP180;6091;51.432;6.880;2023-03-04T00:44:43;101737.00;;;22.00
12061;BMP180;6091;51.432;6.880;2023-03-04T00:47:10;101731.00;;;22.00
12061;BMP180;6091;51.432;6.880;2023-03-04T00:49:37;101738.00;;;22.00
12061;BMP180;6091;51.432;6.880;2023-03-04T00:52:04;101731.00;;;22.00
12061;BMP180;6091;51.432;6.880;2023-03-04T00:54:31;101724.00;;;22.00
12061;BMP180;6091;51.432;6.880;2023-03-04T00:56:58;101733.00;;;22.00
12061;BMP180;6091;51.432;6.880;2023-03-04T00:59:25;101730.00;;;22.00
12061;BMP180;6091;51.432;6.880;2023-03-04T01:01:52;101724.00;;;22.00
12061;BMP180;6091;51.432;6.880;2023-03-04T01:04:19;101727.00;;;22.00
12061;BMP180;6091;51.432;6.880;2023-03-04T01:06:46;101722.00;;;22.00
12061;BMP180;6091;51.432;6.880;2023-03-04T01:09:13;101720.00;;;21.90
12061;BMP180;6091;51.432;6.880;2023-03-04T01:11:40;101721.00;;;21.90
12061;BMP180;6091;51.432;6.880;2023-03-04T01:14:07;101716.00;;;21.90
12061;BMP180;6091;51.432;6.880;2023-03-04T01:16:34;101721.00;;;21.90
12061;BMP180;6091;51.432;6.880;2023-03-04T01:19:01;101717.00;;;21.90
12061;BMP180;6091;51.432;6.880;2023-03-04T01:21:28;101717.00;;;21.90
12061;BMP180;6091;51.432;6.880;2023-03-04T01:23:55;101719.00;;;21.90
12061;BMP180;6091;51.432;6.880;2023-03-04T01:26:22;101718.00;;;21.90
12061;BMP180;6091;51.432;6.880;2023-03-04T01:28:49;101716.00;;;21.90
12061;BMP180;6091;51.432;6.880;2023-03-04T01:31:16;101718.00;;;21.90
12061;BMP180;6091;51.432;6.880;2023-03-04T01:33:43;101707.00;;;21.80
12061;BMP180;6091;51.432;6.880;2023-03-04T01:36:10;101709.00;;;21.90
12061;BMP180;6091;51.432;6.880;2023-03-04T01:38:37;101710.00;;;21.80
12061;BMP180;6091;51.432;6.880;2023-03-04T01:41:04;101713.00;;;21.80
12061;BMP180;6091;51.432;6.880;2023-03-04T01:43:35;101703.00;;;21.80
12061;BMP180;6091;51.432;6.880;2023-03-04T01:46:03;101696.00;;;21.80
12061;BMP180;6091;51.432;6.880;2023-03-04T01:48:35;101704.00;;;21.80
12061;BMP180;6091;51.432;6.880;2023-03-04T01:51:05;101703.00;;;21.80
12061;BMP180;6091;51.432;6.880;2023-03-04T01:53:32;101701.00;;;21.80
12061;BMP180;6091;51.432;6.880;2023-03-04T01:56:11;101700.00;;;21.80
12061;BMP180;6091;51.432;6.880;2023-03-04T01:58:38;101703.00;;;21.80
12061;BMP180;6091;51.432;6.880;2023-03-04T02:01:05;101702.00;;;21.70
12061;BMP180;6091;51.432;6.880;2023-03-04T02:03:32;101698.00;;;21.80
12061;BMP180;6091;51.432;6.880;2023-03-04T02:05:59;101698.00;;;21.70
12061;BMP180;6091;51.432;6.880;2023-03-04T02:08:27;101696.00;;;21.70
12061;BMP180;6091;51.432;6.880;2023-03-04T02:10:54;101692.00;;;21.70
12061;BMP180;6091;51.432;6.880;2023-03-04T02:13:21;101689.00;;;21.70
12061;BMP180;6091;51.432;6.880;2023-03-04T02:15:48;101682.00;;;21.70
12061;BMP180;6091;51.432;6.880;2023-03-04T02:18:21;101686.00;;;21.70
12061;BMP180;6091;51.432;6.880;2023-03-04T02:26:44;101687.00;;;21.60
12061;BMP180;6091;51.432;6.880;2023-03-04T02:29:15;101681.00;;;21.60
12061;BMP180;6091;51.432;6.880;2023-03-04T02:31:51;101682.00;;;21.70
12061;BMP180;6091;51.432;6.880;2023-03-04T02:34:27;101680.00;;;21.60
12061;BMP180;6091;51.432;6.880;2023-03-04T02:36:57;101675.00;;;21.60
12061;BMP180;6091;51.432;6.880;2023-03-04T02:39:33;101678.00;;;21.60
12061;BMP180;6091;51.432;6.880;2023-03-04T02:42:02;101666.00;;;21.60
12061;BMP180;6091;51.432;6.880;2023-03-04T02:44:36;101671.00;;;21.60
12061;BMP180;6091;51.432;6.880;2023-03-04T02:47:07;101671.00;;;21.60
12061;BMP180;6091;51.432;6.880;2023-03-04T02:49:37;101670.00;;;21.60
12061;BMP180;6091;51.432;6.880;2023-03-04T02:52:16;101664.00;;;21.60
12061;BMP180;6091;51.432;6.880;2023-03-04T02:54:44;101664.00;;;21.60
12061;BMP180;6091;51.432;6.880;2023-03-04T02:57:13;101661.00;;;21.60
12061;BMP180;6091;51.432;6.880;2023-03-04T02:59:41;101659.00;;;21.60
12061;BMP180;6091;51.432;6.880;2023-03-04T03:02:09;101663.00;;;21.60
12061;BMP180;6091;51.432;6.880;2023-03-04T03:04:38;101664.00;;;21.60
12061;BMP180;6091;51.432;6.880;2023-03-04T03:07:05;101665.00;;;21.50
12061;BMP180;6091;51.432;6.880;2023-03-04T03:09:32;101655.00;;;21.50
12061;BMP180;6091;51.432;6.880;2023-03-04T03:11:59;101654.00;;;21.50
12061;BMP180;6091;51.432;6.880;2023-03-04T03:14:26;101645.00;;;21.50
12061;BMP180;6091;51.432;6.880;2023-03-04T03:16:53;101651.00;;;21.50
12061;BMP180;6091;51.432;6.880;2023-03-04T03:19:20;101654.00;;;21.50
12061;BMP180;6091;51.432;6.880;2023-03-04T03:21:47;101656.00;;;21.50
12061;BMP180;6091;51.432;6.880;2023-03-04T03:24:14;101642.00;;;21.50
12061;BMP180;6091;51.432;6.880;2023-03-04T03:26:44;101649.00;;;21.50
12061;BMP180;6091;51.432;6.880;2023-03-04T03:29:11;101644.00;;;21.50
12061;BMP180;6091;51.432;6.880;2023-03-04T03:31:38;101641.00;;;21.50
12061;BMP180;6091;51.432;6.880;2023-03-04T03:34:05;101634.00;;;21.50
12061;BMP180;6091;51.432;6.880;2023-03-04T03:36:32;101641.00;;;21.50
12061;BMP180;6091;51.432;6.880;2023-03-04T03:38:59;101634.00;;;21.40
12061;BMP180;6091;51.432;6.880;2023-03-04T03:41:25;101642.00;;;21.50
12061;BMP180;6091;51.432;6.880;2023-03-04T03:43:52;101640.00;;;21.40
12061;BMP180;6091;51.432;6.880;2023-03-04T03:46:19;101633.00;;;21.40
12061;BMP180;6091;51.432;6.880;2023-03-04T03:48:46;101624.00;;;21.40
12061;BMP180;6091;51.432;6.880;2023-03-04T03:51:14;101632.00;;;21.40
12061;BMP180;6091;51.432;6.880;2023-03-04T03:53:41;101631.00;;;21.40
12061;BMP180;6091;51.432;6.880;2023-03-04T03:56:08;101640.00;;;21.40
12061;BMP180;6091;51.432;6.880;2023-03-04T03:58:35;101628.00;;;21.40
12061;BMP180;6091;51.432;6.880;2023-03-04T04:01:02;101630.00;;;21.40
12061;BMP180;6091;51.432;6.880;2023-03-04T04:03:29;101624.00;;;21.40
12061;BMP180;6091;51.432;6.880;2023-03-04T04:05:56;101630.00;;;21.40
12061;BMP180;6091;51.432;6.880;2023-03-04T04:08:23;101626.00;;;21.40
12061;BMP180;6091;51.432;6.880;2023-03-04T04:10:50;101626.00;;;21.40
12061;BMP180;6091;51.432;6.880;2023-03-04T04:13:17;101629.00;;;21.40
12061;BMP180;6091;51.432;6.880;2023-03-04T04:15:44;101631.00;;;21.40
12061;BMP180;6091;51.432;6.880;2023-03-04T04:18:11;101636.00;;;21.40
12061;BMP180;6091;51.432;6.880;2023-03-04T04:20:38;101631.00;;;21.30
12061;BMP180;6091;51.432;6.880;2023-03-04T04:23:05;101629.00;;;21.30
12061;BMP180;6091;51.432;6.880;2023-03-04T04:25:32;101628.00;;;21.30
12061;BMP180;6091;51.432;6.880;2023-03-04T04:27:59;101627.00;;;21.30
12061;BMP180;6091;51.432;6.880;2023-03-04T04:30:26;101623.00;;;21.30
12061;BMP180;6091;51.432;6.880;2023-03-04T04:32:54;101621.00;;;21.30
12061;BMP180;6091;51.432;6.880;2023-03-04T04:35:20;101621.00;;;21.30
12061;BMP180;6091;51.432;6.880;2023-03-04T04:37:48;101619.00;;;21.20
12061;BMP180;6091;51.432;6.880;2023-03-04T04:40:15;101632.00;;;21.30
12061;BMP180;6091;51.432;6.880;2023-03-04T04:42:42;101633.00;;;21.30
12061;BMP180;6091;51.432;6.880;2023-03-04T04:45:10;101631.00;;;21.30
12061;BMP180;6091;51.432;6.880;2023-03-04T04:47:37;101628.00;;;21.30
12061;BMP180;6091;51.432;6.880;2023-03-04T04:50:05;101639.00;;;21.30
12061;BMP180;6091;51.432;6.880;2023-03-04T04:52:32;101635.00;;;21.20
12061;BMP180;6091;51.432;6.880;2023-03-04T04:54:59;101636.00;;;21.20
12061;BMP180;6091;51.432;6.880;2023-03-04T04:57:26;101633.00;;;21.20
12061;BMP180;6091;51.432;6.880;2023-03-04T04:59:53;101646.00;;;21.20
12061;BMP180;6091;51.432;6.880;2023-03-04T05:02:20;101645.00;;;21.20
12061;BMP180;6091;51.432;6.880;2023-03-04T05:04:47;101645.00;;;21.20
12061;BMP180;6091;51.432;6.880;2023-03-04T05:07:14;101649.00;;;21.20
12061;BMP180;6091;51.432;6.880;2023-03-04T05:09:41;101641.00;;;21.20
12061;BMP180;6091;51.432;6.880;2023-03-04T05:12:08;101639.00;;;21.20
12061;BMP180;6091;51.432;6.880;2023-03-04T05:14:35;101642.00;;;21.20
12061;BMP180;6091;51.432;6.880;2023-03-04T05:17:02;101640.00;;;21.10
12061;BMP180;6091;51.432;6.880;2023-03-04T05:19:30;101646.00;;;21.20
12061;BMP180;6091;51.432;6.880;2023-03-04T05:21:56;101641.00;;;21.20
12061;BMP180;6091;51.432;6.880;2023-03-04T05:24:23;101642.00;;;21.20
12061;BMP180;6091;51.432;6.880;2023-03-04T05:26:50;101637.00;;;21.20
12061;BMP180;6091;51.432;6.880;2023-03-04T05:29:17;101636.00;;;21.10
12061;BMP180;6091;51.432;6.880;2023-03-04T05:31:44;101635.00;;;21.10
12061;BMP180;6091;51.432;6.880;2023-03-04T05:34:12;101635.00;;;21.10
12061;BMP180;6091;51.432;6.880;2023-03-04T05:36:39;101632.00;;;21.10
12061;BMP180;6091;51.432;6.880;2023-03-04T05:39:06;101633.00;;;21.10
12061;BMP180;6091;51.432;6.880;2023-03-04T05:41:33;101630.00;;;21.10
12061;BMP180;6091;51.432;6.880;2023-03-04T05:44:00;101635.00;;;21.10
12061;BMP180;6091;51.432;6.880;2023-03-04T05:46:27;101637.00;;;21.10
12061;BMP180;6091;51.432;6.880;2023-03-04T05:48:54;101633.00;;;21.10
12061;BMP180;6091;51.432;6.880;2023-03-04T05:51:22;101640.00;;;21.10
12061;BMP180;6091;51.432;6.880;2023-03-04T05:53:49;101637.00;;;21.10
12061;BMP180;6091;51.432;6.880;2023-03-04T05:56:19;101637.00;;;21.10
12061;BMP180;6091;51.432;6.880;2023-03-04T05:58:46;101644.00;;;21.10
12061;BMP180;6091;51.432;6.880;2023-03-04T06:01:14;101643.00;;;21.10
12061;BMP180;6091;51.432;6.880;2023-03-04T06:03:41;101639.00;;;20.90
12061;BMP180;6091;51.432;6.880;2023-03-04T06:06:09;101640.00;;;21.10
12061;BMP180;6091;51.432;6.880;2023-03-04T06:08:37;101644.00;;;21.10
12061;BMP180;6091;51.432;6.880;2023-03-04T06:11:05;101642.00;;;21.00
12061;BMP180;6091;51.432;6.880;2023-03-04T06:13:33;101641.00;;;21.00
12061;BMP180;6091;51.432;6.880;2023-03-04T06:16:00;101644.00;;;21.00
12061;BMP180;6091;51.432;6.880;2023-03-04T06:18:28;101656.00;;;21.00
12061;BMP180;6091;51.432;6.880;2023-03-04T06:21:00;101653.00;;;21.00
12061;BMP180;6091;51.432;6.880;2023-03-04T06:23:29;101652.00;;;21.00
12061;BMP180;6091;51.432;6.880;2023-03-04T06:25:59;101652.00;;;21.00
12061;BMP180;6091;51.432;6.880;2023-03-04T06:28:27;101650.00;;;21.00
12061;BMP180;6091;51.432;6.880;2023-03-04T06:30:56;101656.00;;;21.00
12061;BMP180;6091;51.432;6.880;2023-03-04T06:33:23;101657.00;;;21.00
12061;BMP180;6091;51.432;6.880;2023-03-04T06:35:56;101659.00;;;21.00
12061;BMP180;6091;51.432;6.880;2023-03-04T06:38:25;101662.00;;;21.00
12061;BMP180;6091;51.432;6.880;2023-03-04T06:40:53;101667.00;;;21.00
12061;BMP180;6091;51.432;6.880;2023-03-04T06:43:23;101659.00;;;21.00
12061;BMP180;6091;51.432;6.880;2023-03-04T06:45:50;101669.00;;;21.00
12061;BMP180;6091;51.432;6.880;2023-03-04T06:48:18;101674.00;;;21.00
12061;BMP180;6091;51.432;6.880;2023-03-04T06:50:45;101677.00;;;21.00
12061;BMP180;6091;51.432;6.880;2023-03-04T06:53:12;101675.00;;;21.00
12061;BMP180;6091;51.432;6.880;2023-03-04T06:55:39;101676.00;;;21.00
12061;BMP180;6091;51.432;6.880;2023-03-04T06:58:06;101673.00;;;20.90
12061;BMP180;6091;51.432;6.880;2023-03-04T07:00:33;101681.00;;;21.00
12061;BMP180;6091;51.432;6.880;2023-03-04T07:03:01;101675.00;;;21.00
12061;BMP180;6091;51.432;6.880;2023-03-04T07:05:27;101680.00;;;20.90
12061;BMP180;6091;51.432;6.880;2023-03-04T07:07:55;101679.00;;;20.90
12061;BMP180;6091;51.432;6.880;2023-03-04T07:10:22;101674.00;;;20.90
12061;BMP180;6091;51.432;6.880;2023-03-04T07:12:49;101684.00;;;20.90
12061;BMP180;6091;51.432;6.880;2023-03-04T07:15:16;101680.00;;;20.90
12061;BMP180;6091;51.432;6.880;2023-03-04T07:17:43;101679.00;;;20.90
12061;BMP180;6091;51.432;6.880;2023-03-04T07:20:11;101677.00;;;20.90
12061;BMP180;6091;51.432;6.880;2023-03-04T07:22:38;101687.00;;;20.90
12061;BMP180;6091;51.432;6.880;2023-03-04T07:25:09;101687.00;;;20.90
12061;BMP180;6091;51.432;6.880;2023-03-04T07:27:37;101685.00;;;20.90
12061;BMP180;6091;51.432;6.880;2023-03-04T07:30:06;101687.00;;;20.90
12061;BMP180;6091;51.432;6.880;2023-03-04T07:32:33;101687.00;;;20.90
12061;BMP180;6091;51.432;6.880;2023-03-04T07:35:05;101690.00;;;20.90
12061;BMP180;6091;51.432;6.880;2023-03-04T07:37:32;101690.00;;;20.90
12061;BMP180;6091;51.432;6.880;2023-03-04T07:39:59;101693.00;;;20.90
12061;BMP180;6091;51.432;6.880;2023-03-04T07:42:26;101688.00;;;20.90
12061;BMP180;6091;51.432;6.880;2023-03-04T07:44:54;101690.00;;;20.90
12061;BMP180;6091;51.432;6.880;2023-03-04T07:47:21;101688.00;;;20.90
12061;BMP180;6091;51.432;6.880;2023-03-04T07:49:48;101689.00;;;20.90
12061;BMP180;6091;51.432;6.880;2023-03-04T07:52:15;101689.00;;;20.90
12061;BMP180;6091;51.432;6.880;2023-03-04T07:54:42;101685.00;;;20.90
12061;BMP180;6091;51.432;6.880;2023-03-04T07:57:10;101689.00;;;20.90
12061;BMP180;6091;51.432;6.880;2023-03-04T07:59:37;101697.00;;;21.00
12061;BMP180;6091;51.432;6.880;2023-03-04T08:02:04;101694.00;;;21.00
12061;BMP180;6091;51.432;6.880;2023-03-04T08:04:31;101693.00;;;21.00
12061;BMP180;6091;51.432;6.880;2023-03-04T08:06:58;101701.00;;;21.00
12061;BMP180;6091;51.432;6.880;2023-03-04T08:09:25;101695.00;;;21.00
12061;BMP180;6091;51.432;6.880;2023-03-04T08:11:53;101702.00;;;21.00
12061;BMP180;6091;51.432;6.880;2023-03-04T08:14:21;101702.00;;;21.10
12061;BMP180;6091;51.432;6.880;2023-03-04T08:16:48;101695.00;;;21.10
12061;BMP180;6091;51.432;6.880;2023-03-04T08:19:14;101690.00;;;21.10
12061;BMP180;6091;51.432;6.880;2023-03-04T08:21:42;101702.00;;;21.10
12061;BMP180;6091;51.432;6.880;2023-03-04T08:24:10;101702.00;;;21.20
12061;BMP180;6091;51.432;6.880;2023-03-04T08:26:45;101687.00;;;21.20
12061;BMP180;6091;51.432;6.880;2023-03-04T08:29:19;101715.00;;;21.30
12061;BMP180;6091;51.432;6.880;2023-03-04T08:31:48;101704.00;;;21.30
12061;BMP180;6091;51.432;6.880;2023-03-04T08:34:19;101700.00;;;21.30
12061;BMP180;6091;51.432;6.880;2023-03-04T08:36:47;101701.00;;;21.30
12061;BMP180;6091;51.432;6.880;2023-03-04T08:39:17;101698.00;;;21.30
12061;BMP180;6091;51.432;6.880;2023-03-04T08:41:46;101702.00;;;21.40
12061;BMP180;6091;51.432;6.880;2023-03-04T08:44:14;101701.00;;;21.40
12061;BMP180;6091;51.432;6.880;2023-03-04T08:46:42;101693.00;;;21.40
12061;BMP180;6091;51.432;6.880;2023-03-04T08:49:11;101693.00;;;21.30
12061;BMP180;6091;51.432;6.880;2023-03-04T08:51:40;101705.00;;;21.40
12061;BMP180;6091;51.432;6.880;2023-03-04T08:54:07;101705.00;;;21.40
12061;BMP180;6091;51.432;6.880;2023-03-04T08:56:34;101703.00;;;21.40
12061;BMP180;6091;51.432;6.880;2023-03-04T08:59:02;101692.00;;;21.40
12061;BMP180;6091;51.432;6.880;2023-03-04T09:01:30;101699.00;;;21.50
12061;BMP180;6091;51.432;6.880;2023-03-04T09:03:57;101701.00;;;21.50
12061;BMP180;6091;51.432;6.880;2023-03-04T09:06:24;101704.00;;;21.50
12061;BMP180;6091;51.432;6.880;2023-03-04T09:08:51;101705.00;;;21.50
12061;BMP180;6091;51.432;6.880;2023-03-04T09:11:18;101714.00;;;21.50
12061;BMP180;6091;51.432;6.880;2023-03-04T09:13:45;101706.00;;;21.50
12061;BMP180;6091;51.432;6.880;2023-03-04T09:16:15;101705.00;;;21.50
12061;BMP180;6091;51.432;6.880;2023-03-04T09:18:42;101707.00;;;21.50
12061;BMP180;6091;51.432;6.880;2023-03-04T09:21:10;101695.00;;;21.50
12061;BMP180;6091;51.432;6.880;2023-03-04T09:23:38;101704.00;;;21.60
12061;BMP180;6091;51.432;6.880;2023-03-04T09:26:22;101701.00;;;21.50
12061;BMP180;6091;51.432;6.880;2023-03-04T09:28:58;101697.00;;;21.60
12061;BMP180;6091;51.432;6.880;2023-03-04T09:31:27;101705.00;;;21.60
12061;BMP180;6091;51.432;6.880;2023-03-04T09:33:57;101709.00;;;21.60
12061;BMP180;6091;51.432;6.880;2023-03-04T09:36:25;101707.00;;;21.60
12061;BMP180;6091;51.432;6.880;2023-03-04T09:38:52;101708.00;;;21.70
12061;BMP180;6091;51.432;6.880;2023-03-04T09:41:32;101696.00;;;21.70
12061;BMP180;6091;51.432;6.880;2023-03-04T09:44:25;101695.00;;;21.70
12061;BMP180;6091;51.432;6.880;2023-03-04T09:46:57;101703.00;;;21.70
12061;BMP180;6091;51.432;6.880;2023-03-04T09:49:25;101689.00;;;21.70
12061;BMP180;6091;51.432;6.880;2023-03-04T09:55:25;101698.00;;;21.70
12061;BMP180;6091;51.432;6.880;2023-03-04T10:01:38;101692.00;;;21.80
12061;BMP180;6091;51.432;6.880;2023-03-04T10:04:39;101685.00;;;21.80
12061;BMP180;6091;51.432;6.880;2023-03-04T10:07:18;101682.00;;;21.90
12061;BMP180;6091;51.432;6.880;2023-03-04T10:09:53;101678.00;;;22.00
12061;BMP180;6091;51.432;6.880;2023-03-04T10:12:28;101673.00;;;22.00
12061;BMP180;6091;51.432;6.880;2023-03-04T10:15:22;101671.00;;;22.00
12061;BMP180;6091;51.432;6.880;2023-03-04T10:18:03;101679.00;;;22.10
12061;BMP180;6091;51.432;6.880;2023-03-04T10:20:56;101680.00;;;22.10
12061;BMP180;6091;51.432;6.880;2023-03-04T10:23:27;101665.00;;;22.10
12061;BMP180;6091;51.432;6.880;2023-03-04T10:25:56;101678.00;;;22.10
12061;BMP180;6091;51.432;6.880;2023-03-04T10:28:30;101682.00;;;22.50
12061;BMP180;6091;51.432;6.880;2023-03-04T10:31:11;101673.00;;;22.30
12061;BMP180;6091;51.432;6.880;2023-03-04T10:33:43;101678.00;;;22.30
12061;BMP180;6091;51.432;6.880;2023-03-04T10:36:37;101669.00;;;22.40
12061;BMP180;6091;51.432;6.880;2023-03-04T10:39:12;101672.00;;;22.50
12061;BMP180;6091;51.432;6.880;2023-03-04T10:41:45;101686.00;;;22.60
12061;BMP180;6091;51.432;6.880;2023-03-04T10:44:20;101682.00;;;22.70
12061;BMP180;6091;51.432;6.880;2023-03-04T10:46:48;101681.00;;;22.90
12061;BMP180;6091;51.432;6.880;2023-03-04T10:49:18;101684.00;;;23.20
12061;BMP180;6091;51.432;6.880;2023-03-04T10:51:47;101679.00;;;23.30
12061;BMP180;6091;51.432;6.880;2023-03-04T10:54:30;101679.00;;;23.40
12061;BMP180;6091;51.432;6.880;2023-03-04T10:57:05;101677.00;;;23.60
12061;BMP180;6091;51.432;6.880;2023-03-04T10:59:58;101671.00;;;23.80
12061;BMP180;6091;51.432;6.880;2023-03-04T11:02:31;101680.00;;;24.00
12061;BMP180;6091;51.432;6.880;2023-03-04T11:07:47;101678.00;;;24.60
12061;BMP180;6091;51.432;6.880;2023-03-04T11:16:00;101671.00;;;24.80
12061;BMP180;6091;51.432;6.880;2023-03-04T11:21:22;101660.00;;;25.00
12061;BMP180;6091;51.432;6.880;2023-03-04T11:24:16;101658.00;;;25.10
12061;BMP180;6091;51.432;6.880;2023-03-04T11:27:20;101651.00;;;25.20
12061;BMP180;6091;51.432;6.880;2023-03-04T11:32:43;101652.00;;;25.40
12061;BMP180;6091;51.432;6.880;2023-03-04T11:35:56;101649.00;;;25.50
12061;BMP180;6091;51.432;6.880;2023-03-04T11:38:40;101645.00;;;25.50
12061;BMP180;6091;51.432;6.880;2023-03-04T11:41:16;101639.00;;;25.60
12061;BMP180;6091;51.432;6.880;2023-03-04T11:43:46;101649.00;;;25.70
12061;BMP180;6091;51.432;6.880;2023-03-04T11:49:40;101643.00;;;25.80
12061;BMP180;6091;51.432;6.880;2023-03-04T11:52:23;101643.00;;;25.80
12061;BMP180;6091;51.432;6.880;2023-03-04T12:01:08;101632.00;;;25.90
12061;BMP180;6091;51.432;6.880;2023-03-04T12:10:05;101619.00;;;26.10
12061;BMP180;6091;51.432;6.880;2023-03-04T12:16:38;101614.00;;;26.10
12061;BMP180;6091;51.432;6.880;2023-03-04T12:19:22;101609.00;;;26.20
12061;BMP180;6091;51.432;6.880;2023-03-04T12:22:04;101601.00;;;26.30
12061;BMP180;6091;51.432;6.880;2023-03-04T12:33:51;101594.00;;;26.40
12061;BMP180;6091;51.432;6.880;2023-03-04T12:40:26;101584.00;;;26.50
12061;BMP180;6091;51.432;6.880;2023-03-04T12:43:26;101584.00;;;26.50
12061;BMP180;6091;51.432;6.880;2023-03-04T12:55:41;101584.00;;;26.60
12061;BMP180;6091;51.432;6.880;2023-03-04T12:58:31;101595.00;;;26.60
12061;BMP180;6091;51.432;6.880;2023-03-04T13:01:33;101580.00;;;26.70
12061;BMP180;6091;51.432;6.880;2023-03-04T13:04:26;101577.00;;;26.70
12061;BMP180;6091;51.432;6.880;2023-03-04T13:07:16;101579.00;;;26.80
12061;BMP180;6091;51.432;6.880;2023-03-04T13:10:12;101572.00;;;26.80
12061;BMP180;6091;51.432;6.880;2023-03-04T13:12:57;101572.00;;;26.90
12061;BMP180;6091;51.432;6.880;2023-03-04T13:15:34;101578.00;;;27.00
12061;BMP180;6091;51.432;6.880;2023-03-04T13:18:36;101574.00;;;27.00
12061;BMP180;6091;51.432;6.880;2023-03-04T13:23:39;101570.00;;;27.10
12061;BMP180;6091;51.432;6.880;2023-03-04T13:26:33;101569.00;;;27.10
12061;BMP180;6091;51.432;6.880;2023-03-04T13:32:04;101557.00;;;27.10
12061;BMP180;6091;51.432;6.880;2023-03-04T13:34:51;101551.00;;;27.20
12061;BMP180;6091;51.432;6.880;2023-03-04T13:37:35;101557.00;;;27.20
12061;BMP180;6091;51.432;6.880;2023-03-04T13:42:51;101548.00;;;27.20
12061;BMP180;6091;51.432;6.880;2023-03-04T13:45:34;101544.00;;;27.20
12061;BMP180;6091;51.432;6.880;2023-03-04T13:48:07;101536.00;;;27.20
12061;BMP180;6091;51.432;6.880;2023-03-04T13:50:50;101538.00;;;27.20
12061;BMP180;6091;51.432;6.880;2023-03-04T14:06:46;101523.00;;;27.20
12061;BMP180;6091;51.432;6.880;2023-03-04T14:11:48;101517.00;;;27.10
12061;BMP180;6091;51.432;6.880;2023-03-04T14:14:21;101511.00;;;27.10
12061;BMP180;6091;51.432;6.880;2023-03-04T14:16:55;101512.00;;;27.10
12061;BMP180;6091;51.432;6.880;2023-03-04T14:19:35;101508.00;;;27.10
12061;BMP180;6091;51.432;6.880;2023-03-04T14:22:29;101509.00;;;27.10
12061;BMP180;6091;51.432;6.880;2023-03-04T14:25:26;101510.00;;;27.10
12061;BMP180;6091;51.432;6.880;2023-03-04T14:28:15;101505.00;;;27.10
12061;BMP180;6091;51.432;6.880;2023-03-04T14:30:53;101500.00;;;27.10
12061;BMP180;6091;51.432;6.880;2023-03-04T14:33:25;101492.00;;;27.10
12061;BMP180;6091;51.432;6.880;2023-03-04T14:35:58;101496.00;;;27.10
12061;BMP180;6091;51.432;6.880;2023-03-04T14:38:36;101501.00;;;27.10
12061;BMP180;6091;51.432;6.880;2023-03-04T14:41:17;101493.00;;;27.10
12061;BMP180;6091;51.432;6.880;2023-03-04T14:46:43;101485.00;;;27.10
12061;BMP180;6091;51.432;6.880;2023-03-04T14:49:35;101484.00;;;27.10
12061;BMP180;6091;51.432;6.880;2023-03-04T14:52:03;101486.00;;;27.10
12061;BMP180;6091;51.432;6.880;2023-03-04T14:54:39;101485.00;;;27.10
12061;BMP180;6091;51.432;6.880;2023-03-04T14:57:34;101481.00;;;27.10
12061;BMP180;6091;51.432;6.880;2023-03-04T15:00:24;101475.00;;;27.10
12061;BMP180;6091;51.432;6.880;2023-03-04T15:02:59;101472.00;;;27.10
12061;BMP180;6091;51.432;6.880;2023-03-04T15:05:35;101482.00;;;27.10
12061;BMP180;6091;51.432;6.880;2023-03-04T15:08:25;101476.00;;;27.10
12061;BMP180;6091;51.432;6.880;2023-03-04T15:11:02;101481.00;;;27.10
12061;BMP180;6091;51.432;6.880;2023-03-04T15:13:49;101464.00;;;27.10
12061;BMP180;6091;51.432;6.880;2023-03-04T15:16:21;101468.00;;;27.10
12061;BMP180;6091;51.432;6.880;2023-03-04T15:19:22;101468.00;;;27.20
12061;BMP180;6091;51.432;6.880;2023-03-04T15:22:05;101466.00;;;27.20
12061;BMP180;6091;51.432;6.880;2023-03-04T15:24:32;101474.00;;;27.20
12061;BMP180;6091;51.432;6.880;2023-03-04T15:26:59;101474.00;;;27.20
12061;BMP180;6091;51.432;6.880;2023-03-04T15:29:26;101467.00;;;27.30
12061;BMP180;6091;51.432;6.880;2023-03-04T15:31:53;101466.00;;;27.30
12061;BMP180;6091;51.432;6.880;2023-03-04T15:34:20;101467.00;;;27.30
12061;BMP180;6091;51.432;6.880;2023-03-04T15:36:58;101463.00;;;27.30
12061;BMP180;6091;51.432;6.880;2023-03-04T15:39:26;101465.00;;;27.30
12061;BMP180;6091;51.432;6.880;2023-03-04T15:41:53;101459.00;;;27.30
12061;BMP180;6091;51.432;6.880;2023-03-04T15:44:24;101458.00;;;27.30
12061;BMP180;6091;51.432;6.880;2023-03-04T15:46:51;101459.00;;;27.30
12061;BMP180;6091;51.432;6.880;2023-03-04T15:49:19;101458.00;;;27.30
12061;BMP180;6091;51.432;6.880;2023-03-04T15:51:46;101454.00;;;27.30
12061;BMP180;6091;51.432;6.880;2023-03-04T15:54:16;101463.00;;;27.30
12061;BMP180;6091;51.432;6.880;2023-03-04T15:56:43;101465.00;;;27.30
12061;BMP180;6091;51.432;6.880;2023-03-04T15:59:13;101472.00;;;27.40
12061;BMP180;6091;51.432;6.880;2023-03-04T16:01:42;101467.00;;;27.30
12061;BMP180;6091;51.432;6.880;2023-03-04T16:04:13;101457.00;;;27.30
12061;BMP180;6091;51.432;6.880;2023-03-04T16:06:46;101462.00;;;27.30
12061;BMP180;6091;51.432;6.880;2023-03-04T16:09:17;101453.00;;;27.30